Dan Fighter — OVUE2 — position and weather

sailwx.info

Track history (hours):
 
Tides and Currents Weather Stations Pressure Air Temp Water Temp Dewpoint Dewpoint Depression Visibility Wind Speed Wind Dir Waves Ship Positions

Dan Fighter

Last reported at 2014-Nov-09 19:12 UTC. Time now 2014-Nov-23 18:43 UTC.
Position N 36°40' E 014°36'.
Warning: this ship's position is 13 days out of date.

Length 64 m; draft 3.1 m.

Type: Cargo ship. MMSI: 220386978.

Date/timePositionNaut miles runAvg speedWind from/ knotsBaromVisibWave heightAir tempDewpointWater temp
2014-Nov-09 19:12N 36°40' E 014°36'6 8.7
2014-Nov-09 18:33N 36°41' E 014°29'9 9.0
2014-Nov-09 17:33N 36°43' E 014°18'18 8.9
2014-Nov-09 15:33N 36°48' E 013°56'  
2014-Nov-04 01:31N 37°42' E 008°58'7 7.1
2014-Nov-04 00:31N 37°44' E 009°07'7 7.4
2014-Nov-03 23:33N 37°46' E 009°16'169 7.7
2014-Nov-03 01:31N 38°15' E 012°47'8 8.0
2014-Nov-03 00:34N 38°16' E 012°57'8 8.0
2014-Nov-02 23:33N 38°17' E 013°07'8 8.2
2014-Nov-02 22:34N 38°17' E 013°18'8 8.2
2014-Nov-02 21:33N 38°17' E 013°28'8 8.1
2014-Nov-02 20:33N 38°17' E 013°39'8 8.0
2014-Nov-02 19:33N 38°17' E 013°49'60 8.4
2014-Nov-02 12:26N 38°18' E 015°05'8 8.3
2014-Nov-02 11:31N 38°19' E 015°15'8 8.3
2014-Nov-02 10:33N 38°19' E 015°25'8 7.6
2014-Nov-02 09:33N 38°19' E 015°35'6 5.4
2014-Nov-02 08:29N 38°15' E 015°40'17 8.0
2014-Nov-02 06:23N 37°58' E 015°37'  
Track history (hours):
 
Tides and Currents Weather Stations Pressure Air Temp Water Temp Dewpoint Dewpoint Depression Visibility Wind Speed Wind Dir Waves Ship Positions

Dan Fighter

Last reported at 2014-Nov-09 19:12 UTC. Time now 2014-Nov-23 18:43 UTC.
Position N 36°40' E 014°36'.
Warning: this ship's position is 13 days out of date.

Length 64 m; draft 3.1 m.

Type: Cargo ship. MMSI: 220386978.

Date/timePositionNaut miles runAvg speedWind from/ knotsBaromVisibWave heightAir tempDewpointWater temp
2014-Nov-09 19:12N 36°40' E 014°36'6 8.7
2014-Nov-09 18:33N 36°41' E 014°29'9 9.0
2014-Nov-09 17:33N 36°43' E 014°18'18 8.9
2014-Nov-09 15:33N 36°48' E 013°56'  
2014-Nov-04 01:31N 37°42' E 008°58'7 7.1
2014-Nov-04 00:31N 37°44' E 009°07'7 7.4
2014-Nov-03 23:33N 37°46' E 009°16'169 7.7
2014-Nov-03 01:31N 38°15' E 012°47'8 8.0
2014-Nov-03 00:34N 38°16' E 012°57'8 8.0
2014-Nov-02 23:33N 38°17' E 013°07'8 8.2
2014-Nov-02 22:34N 38°17' E 013°18'8 8.2
2014-Nov-02 21:33N 38°17' E 013°28'8 8.1
2014-Nov-02 20:33N 38°17' E 013°39'8 8.0
2014-Nov-02 19:33N 38°17' E 013°49'60 8.4
2014-Nov-02 12:26N 38°18' E 015°05'8 8.3
2014-Nov-02 11:31N 38°19' E 015°15'8 8.3
2014-Nov-02 10:33N 38°19' E 015°25'8 7.6
2014-Nov-02 09:33N 38°19' E 015°35'6 5.4
2014-Nov-02 08:29N 38°15' E 015°40'17 8.0
2014-Nov-02 06:23N 37°58' E 015°37'  

Dump ship's entire track history